createdAt,value
2017-03-01T00:01:01.517Z,0
2017-03-01T00:02:15.752Z,0
2017-03-01T00:03:31.119Z,0
2017-03-01T00:04:45.399Z,0
2017-03-01T00:05:59.960Z,0
2017-03-01T00:07:14.017Z,0
2017-03-01T00:08:28.251Z,0
2017-03-01T00:09:43.317Z,0
2017-03-01T00:10:57.934Z,0
2017-03-01T00:12:12.666Z,0
2017-03-01T00:13:28.245Z,0
2017-03-01T00:14:42.859Z,0
2017-03-01T00:15:57.248Z,0
2017-03-01T00:17:11.466Z,0
2017-03-01T00:18:25.896Z,0
2017-03-01T00:19:40.876Z,0
2017-03-01T00:20:56.676Z,0
2017-03-01T00:22:13.843Z,0
2017-03-01T00:23:29.071Z,0
2017-03-01T00:24:44.568Z,0
2017-03-01T00:25:59.759Z,0
2017-03-01T00:27:14.790Z,0
2017-03-01T00:28:31.281Z,0
2017-03-01T00:29:46.281Z,0
2017-03-01T00:31:02.043Z,0
2017-03-01T00:32:17.420Z,0
2017-03-01T00:33:32.735Z,0
2017-03-01T00:34:47.627Z,0
2017-03-01T00:36:02.458Z,0
2017-03-01T00:37:18.865Z,0
2017-03-01T00:38:36.742Z,0
2017-03-01T00:39:52.420Z,0
2017-03-01T00:41:07.367Z,0
2017-03-01T00:42:22.912Z,0
2017-03-01T00:43:37.876Z,0
2017-03-01T00:44:53.475Z,0
2017-03-01T00:46:08.587Z,0
2017-03-01T00:47:24.538Z,0
2017-03-01T00:48:39.592Z,0
2017-03-01T00:49:54.410Z,0
2017-03-01T00:51:08.610Z,0
2017-03-01T00:52:23.946Z,0
2017-03-01T00:53:39.837Z,0
2017-03-01T00:54:55.088Z,0
2017-03-01T00:56:11.128Z,0
2017-03-01T00:57:26.073Z,0
2017-03-01T00:58:41.491Z,0
2017-03-01T00:59:57.537Z,0
2017-03-01T01:01:12.133Z,0
2017-03-01T01:02:27.691Z,0
2017-03-01T01:03:42.511Z,0
2017-03-01T01:04:56.694Z,0
2017-03-01T01:06:11.960Z,0
2017-03-01T01:07:27.937Z,0
2017-03-01T01:08:42.798Z,0
2017-03-01T01:09:58.425Z,0
2017-03-01T01:11:16.109Z,0
2017-03-01T01:12:31.034Z,0
2017-03-01T01:13:45.329Z,0
2017-03-01T01:15:01.040Z,0
2017-03-01T01:16:17.871Z,0
2017-03-01T01:17:36.963Z,0
2017-03-01T01:18:51.950Z,0
2017-03-01T01:20:08.642Z,0
2017-03-01T01:21:24.449Z,0
2017-03-01T01:22:39.358Z,0
2017-03-01T01:23:55.284Z,0
2017-03-01T01:25:11.181Z,0
2017-03-01T01:26:26.791Z,0
2017-03-01T01:27:42.171Z,0
2017-03-01T01:28:57.675Z,0
2017-03-01T01:30:12.698Z,0
2017-03-01T01:31:27.040Z,0
2017-03-01T01:32:41.291Z,0
2017-03-01T01:33:56.613Z,0
2017-03-01T01:35:11.628Z,0
2017-03-01T01:36:26.678Z,0
2017-03-01T01:37:42.831Z,0
2017-03-01T01:38:58.765Z,0
2017-03-01T01:40:13.288Z,0
2017-03-01T01:41:27.942Z,0
2017-03-01T01:42:43.475Z,0
2017-03-01T01:43:57.650Z,0
2017-03-01T01:45:25.176Z,0
2017-03-01T01:46:39.863Z,0
2017-03-01T01:47:54.974Z,0
2017-03-01T01:49:10.269Z,0
2017-03-01T01:50:25.778Z,0
2017-03-01T01:51:40.493Z,0
2017-03-01T01:52:55.304Z,0
2017-03-01T01:54:24.623Z,0
2017-03-01T01:55:39.280Z,0
2017-03-01T01:56:56.481Z,0
2017-03-01T01:58:11.911Z,0
2017-03-01T01:59:40.950Z,0
2017-03-01T02:00:55.647Z,0
2017-03-01T02:02:10.170Z,0
2017-03-01T02:03:24.504Z,0
2017-03-01T02:04:39.203Z,0
2017-03-01T02:05:53.815Z,0
2017-03-01T02:07:07.880Z,0
2017-03-01T02:08:22.963Z,0
2017-03-01T02:09:37.135Z,0
2017-03-01T02:10:52.175Z,0
2017-03-01T02:12:09.267Z,0
2017-03-01T02:13:23.424Z,0
2017-03-01T02:14:38.668Z,0
2017-03-01T02:15:52.697Z,0
2017-03-01T02:17:07.063Z,0
2017-03-01T02:18:21.717Z,0
2017-03-01T02:19:36.064Z,0
2017-03-01T02:20:50.417Z,0
2017-03-01T02:22:05.063Z,0
2017-03-01T02:23:19.603Z,0
2017-03-01T02:24:33.730Z,0
2017-03-01T02:25:47.887Z,0
2017-03-01T02:27:02.224Z,0
2017-03-01T02:28:16.915Z,0
2017-03-01T02:29:30.935Z,0
2017-03-01T02:30:45.008Z,0
2017-03-01T02:31:59.218Z,0
2017-03-01T02:33:13.360Z,0
2017-03-01T02:34:27.629Z,0
2017-03-01T02:35:42.270Z,0
2017-03-01T02:36:56.305Z,0
2017-03-01T02:38:10.421Z,0
2017-03-01T02:39:25.287Z,0
2017-03-01T02:40:40.000Z,0
2017-03-01T02:41:54.223Z,0
2017-03-01T02:43:08.749Z,0
2017-03-01T02:44:23.302Z,0
2017-03-01T02:45:37.895Z,0
2017-03-01T02:46:52.605Z,0
2017-03-01T02:48:07.307Z,0
2017-03-01T02:49:22.341Z,0
2017-03-01T02:50:36.780Z,0
2017-03-01T02:51:51.404Z,0
2017-03-01T02:53:05.646Z,0
2017-03-01T02:54:19.630Z,0
2017-03-01T02:55:33.727Z,0
2017-03-01T02:56:49.039Z,0
2017-03-01T02:58:03.144Z,0
2017-03-01T02:59:17.136Z,0
2017-03-01T03:00:31.392Z,0
2017-03-01T03:01:45.593Z,0
2017-03-01T03:02:59.776Z,0
2017-03-01T03:04:13.910Z,0
2017-03-01T03:05:28.450Z,0
2017-03-01T03:06:48.908Z,0
2017-03-01T03:08:03.514Z,0
2017-03-01T03:09:17.553Z,0
2017-03-01T03:10:31.869Z,0
2017-03-01T03:11:46.314Z,0
2017-03-01T03:13:00.574Z,0
2017-03-01T03:14:17.334Z,0
2017-03-01T03:15:31.890Z,0
2017-03-01T03:16:46.456Z,0
2017-03-01T03:18:00.705Z,0
2017-03-01T03:19:15.117Z,0
2017-03-01T03:20:29.140Z,0
2017-03-01T03:21:43.349Z,0
2017-03-01T03:22:57.569Z,0
2017-03-01T03:24:11.747Z,0
2017-03-01T03:25:27.011Z,0
2017-03-01T03:26:41.626Z,0
2017-03-01T03:27:55.866Z,0
2017-03-01T03:29:09.861Z,0
2017-03-01T03:30:23.989Z,0
2017-03-01T03:31:38.313Z,0
2017-03-01T03:33:24.736Z,0
2017-03-01T03:34:39.214Z,0
2017-03-01T03:35:53.645Z,0
2017-03-01T03:37:07.738Z,0
2017-03-01T03:38:21.799Z,0
2017-03-01T03:39:36.214Z,0
2017-03-01T03:40:50.340Z,0
2017-03-01T03:42:04.380Z,0
2017-03-01T03:43:18.831Z,0
2017-03-01T03:44:32.804Z,0
2017-03-01T03:45:46.802Z,0
2017-03-01T03:47:00.894Z,0
2017-03-01T03:48:14.960Z,0
2017-03-01T03:49:30.221Z,0
2017-03-01T03:50:44.315Z,0
2017-03-01T03:51:58.349Z,0
2017-03-01T03:53:12.474Z,0
2017-03-01T03:54:26.598Z,0
2017-03-01T03:55:41.060Z,0
2017-03-01T03:56:55.161Z,0
2017-03-01T03:58:09.369Z,0
2017-03-01T03:59:24.884Z,0
2017-03-01T04:00:38.945Z,0
2017-03-01T04:01:53.837Z,0
2017-03-01T04:03:08.236Z,0
2017-03-01T04:04:22.283Z,0
2017-03-01T04:05:36.565Z,0
2017-03-01T04:06:51.055Z,0
2017-03-01T04:08:05.202Z,0
2017-03-01T04:09:19.745Z,0
2017-03-01T04:12:03.513Z,0
2017-03-01T04:13:17.616Z,0
2017-03-01T04:14:31.646Z,0
2017-03-01T04:15:45.814Z,0
2017-03-01T04:17:00.562Z,0
2017-03-01T04:18:15.393Z,0
2017-03-01T04:19:29.993Z,0
2017-03-01T04:20:44.680Z,0
2017-03-01T04:21:58.899Z,0
2017-03-01T04:23:13.272Z,0
2017-03-01T04:24:27.666Z,0
2017-03-01T04:25:42.278Z,0
2017-03-01T04:26:56.527Z,0
2017-03-01T04:28:10.981Z,0
2017-03-01T04:29:25.674Z,0
2017-03-01T04:30:40.504Z,0
2017-03-01T04:31:54.688Z,0
2017-03-01T04:33:11.823Z,0
2017-03-01T04:34:26.393Z,0
2017-03-01T04:35:40.927Z,0
2017-03-01T04:36:55.086Z,0
2017-03-01T04:38:09.337Z,0
2017-03-01T04:39:23.898Z,0
2017-03-01T04:40:38.070Z,0
2017-03-01T04:41:52.234Z,0
2017-03-01T04:43:07.863Z,0
2017-03-01T04:44:22.017Z,0
2017-03-01T04:45:36.218Z,0
2017-03-01T04:46:50.507Z,0
2017-03-01T04:48:04.770Z,0
2017-03-01T04:49:19.256Z,0
2017-03-01T04:50:33.434Z,0
2017-03-01T04:51:48.468Z,0
2017-03-01T04:53:04.817Z,0
2017-03-01T04:54:20.382Z,0
2017-03-01T04:55:35.424Z,0
2017-03-01T04:56:49.555Z,0
2017-03-01T04:58:05.118Z,0
2017-03-01T04:59:20.083Z,0
2017-03-01T05:00:36.041Z,0
2017-03-01T05:01:50.156Z,0
2017-03-01T05:03:04.814Z,0
2017-03-01T05:04:19.229Z,0
2017-03-01T05:05:34.559Z,0
2017-03-01T05:06:49.214Z,0
2017-03-01T05:08:03.489Z,0
2017-03-01T05:09:17.907Z,0
2017-03-01T05:10:32.506Z,0
2017-03-01T05:11:46.852Z,0
2017-03-01T05:13:00.966Z,0
2017-03-01T05:14:16.901Z,0
2017-03-01T05:15:31.048Z,0
2017-03-01T05:16:45.324Z,0
2017-03-01T05:18:00.777Z,0
2017-03-01T05:19:15.478Z,0
2017-03-01T05:20:30.465Z,0
2017-03-01T05:21:46.596Z,0
2017-03-01T05:23:01.217Z,0
2017-03-01T05:24:15.677Z,0
2017-03-01T05:25:30.474Z,0
2017-03-01T05:26:44.691Z,0
2017-03-01T05:27:58.950Z,0
2017-03-01T05:29:13.189Z,0
2017-03-01T05:30:27.401Z,0
2017-03-01T05:31:41.574Z,0
2017-03-01T05:32:56.348Z,0
2017-03-01T05:34:10.374Z,0
2017-03-01T05:35:24.652Z,0
2017-03-01T05:36:38.812Z,0
2017-03-01T05:37:55.245Z,0
2017-03-01T05:39:10.427Z,0
2017-03-01T05:40:26.007Z,0
2017-03-01T05:41:44.367Z,0
2017-03-01T05:43:04.805Z,0
2017-03-01T05:44:25.912Z,0
2017-03-01T05:45:48.322Z,0
2017-03-01T05:47:07.146Z,4
2017-03-01T05:48:27.335Z,4
2017-03-01T05:49:47.940Z,4
2017-03-01T05:51:15.792Z,4
2017-03-01T05:52:37.330Z,4
2017-03-01T05:53:59.617Z,8
2017-03-01T05:55:19.963Z,12
2017-03-01T05:56:41.861Z,8
2017-03-01T05:58:02.515Z,8
2017-03-01T05:59:20.570Z,12
2017-03-01T06:00:37.329Z,12
2017-03-01T06:01:52.136Z,16
2017-03-01T06:03:07.052Z,16
2017-03-01T06:04:21.564Z,16
2017-03-01T06:05:35.774Z,20
2017-03-01T06:06:50.509Z,24
2017-03-01T06:08:04.592Z,32
2017-03-01T06:09:19.570Z,64
2017-03-01T06:10:33.621Z,76
2017-03-01T06:11:47.692Z,72
2017-03-01T06:13:02.169Z,68
2017-03-01T06:14:17.308Z,52
2017-03-01T06:15:31.799Z,60
2017-03-01T06:16:46.969Z,76
2017-03-01T06:18:01.956Z,84
2017-03-01T06:19:17.643Z,68
2017-03-01T06:20:32.352Z,76
2017-03-01T06:21:48.682Z,76
2017-03-01T06:23:03.696Z,72
2017-03-01T06:24:18.208Z,92
2017-03-01T06:25:32.818Z,116
2017-03-01T06:26:48.025Z,152
2017-03-01T06:28:02.590Z,180
2017-03-01T06:29:17.222Z,196
2017-03-01T06:30:31.283Z,228
2017-03-01T06:31:45.923Z,272
2017-03-01T06:33:01.057Z,276
2017-03-01T06:34:15.531Z,280
2017-03-01T06:35:30.088Z,268
2017-03-01T06:36:44.172Z,192
2017-03-01T06:37:58.817Z,204
2017-03-01T06:39:13.458Z,240
2017-03-01T06:40:28.432Z,228
2017-03-01T06:41:42.539Z,216
2017-03-01T06:42:57.222Z,300
2017-03-01T06:44:11.543Z,392
2017-03-01T06:45:25.720Z,420
2017-03-01T06:46:40.772Z,500
2017-03-01T06:47:54.982Z,548
2017-03-01T06:49:09.473Z,544
2017-03-01T06:50:25.060Z,616
2017-03-01T06:51:39.258Z,840
2017-03-01T06:52:53.841Z,1012
2017-03-01T06:54:07.978Z,904
2017-03-01T06:55:23.739Z,1100
2017-03-01T06:56:37.877Z,816
2017-03-01T06:57:53.426Z,784
2017-03-01T06:59:07.609Z,832
2017-03-01T07:00:21.845Z,900
2017-03-01T07:01:36.808Z,772
2017-03-01T07:02:50.925Z,1196
2017-03-01T07:04:05.024Z,1292
2017-03-01T07:05:20.194Z,1064
2017-03-01T07:06:35.312Z,892
2017-03-01T07:07:50.703Z,800
2017-03-01T07:09:07.219Z,704
2017-03-01T07:10:21.796Z,752
2017-03-01T07:11:36.457Z,604
2017-03-01T07:12:50.438Z,768
2017-03-01T07:14:04.077Z,860
2017-03-01T07:15:18.245Z,888
2017-03-01T07:16:33.315Z,848
2017-03-01T07:17:47.989Z,980
2017-03-01T07:19:02.100Z,1120
2017-03-01T07:20:17.931Z,712
2017-03-01T07:21:33.481Z,796
2017-03-01T07:22:48.240Z,720
2017-03-01T07:24:02.393Z,1424
2017-03-01T07:25:16.479Z,2328
2017-03-01T07:26:31.012Z,3020
2017-03-01T07:27:46.616Z,1724
2017-03-01T07:29:01.416Z,1000
2017-03-01T07:30:16.561Z,976
2017-03-01T07:31:31.078Z,952
2017-03-01T07:32:46.712Z,924
2017-03-01T07:34:02.680Z,1212
2017-03-01T07:35:18.231Z,1692
2017-03-01T07:36:33.073Z,1160
2017-03-01T07:37:47.863Z,1020
2017-03-01T07:39:02.566Z,652
2017-03-01T07:40:17.305Z,604
2017-03-01T07:41:32.314Z,1076
2017-03-01T07:42:46.906Z,1108
2017-03-01T07:44:02.437Z,1080
2017-03-01T07:45:16.783Z,1176
2017-03-01T07:46:31.529Z,2144
2017-03-01T07:47:45.597Z,2016
2017-03-01T07:48:59.993Z,1452
2017-03-01T07:50:15.301Z,1440
2017-03-01T07:51:30.009Z,1596
2017-03-01T07:52:45.209Z,1608
2017-03-01T07:54:00.274Z,2768
2017-03-01T07:55:15.424Z,3528
2017-03-01T07:57:02.877Z,3236
2017-03-01T07:58:17.576Z,4080
2017-03-01T07:59:32.182Z,3292
2017-03-01T08:01:30.592Z,2936
2017-03-01T08:02:45.140Z,2204
2017-03-01T08:04:00.282Z,1416
2017-03-01T08:05:14.574Z,1092
2017-03-01T08:06:29.682Z,996
2017-03-01T08:07:44.503Z,1060
2017-03-01T08:08:58.605Z,1192
2017-03-01T08:10:12.744Z,960
2017-03-01T08:11:27.706Z,560
2017-03-01T08:12:42.381Z,536
2017-03-01T08:13:56.717Z,616
2017-03-01T08:15:11.845Z,616
2017-03-01T08:16:25.841Z,924
2017-03-01T08:17:41.217Z,1128
2017-03-01T08:18:55.345Z,1920
2017-03-01T08:20:10.986Z,1220
2017-03-01T08:21:25.785Z,1128
2017-03-01T08:22:40.513Z,844
2017-03-01T08:23:55.417Z,1396
2017-03-01T08:25:11.140Z,1396
2017-03-01T08:26:25.578Z,1408
2017-03-01T08:27:42.891Z,2120
2017-03-01T08:28:57.940Z,2268
2017-03-01T08:30:13.602Z,1768
2017-03-01T08:31:27.870Z,2188
2017-03-01T08:32:42.794Z,1320
2017-03-01T08:33:57.549Z,1724
2017-03-01T08:35:12.119Z,2484
2017-03-01T08:36:26.982Z,2532
2017-03-01T08:37:41.126Z,2736
2017-03-01T08:38:55.647Z,2140
2017-03-01T08:40:10.537Z,1876
2017-03-01T08:41:25.487Z,1732
2017-03-01T08:42:39.769Z,1416
2017-03-01T08:43:54.166Z,1496
2017-03-01T08:45:09.032Z,1484
2017-03-01T08:46:24.190Z,1760
2017-03-01T08:47:38.530Z,1968
2017-03-01T08:48:53.459Z,1612
2017-03-01T08:50:08.976Z,1140
2017-03-01T08:51:23.687Z,892
2017-03-01T08:52:38.754Z,1024
2017-03-01T08:53:53.512Z,1808
2017-03-01T08:55:09.102Z,1932
2017-03-01T08:56:23.568Z,1360
2017-03-01T08:57:37.726Z,1348
2017-03-01T08:58:51.742Z,1660
2017-03-01T09:00:07.030Z,2360
2017-03-01T09:01:21.471Z,2928
2017-03-01T09:02:35.691Z,2392
2017-03-01T09:03:50.229Z,3228
2017-03-01T09:05:04.302Z,1960
2017-03-01T09:06:19.456Z,1532
2017-03-01T09:07:34.596Z,1612
2017-03-01T09:08:49.865Z,1768
2017-03-01T09:10:04.404Z,1708
2017-03-01T09:11:18.524Z,1564
2017-03-01T09:12:32.721Z,1644
2017-03-01T09:13:47.359Z,1680
2017-03-01T09:15:02.017Z,1756
2017-03-01T09:16:16.122Z,1680
2017-03-01T09:17:30.317Z,1492
2017-03-01T09:18:44.985Z,1476
2017-03-01T09:20:00.094Z,2048
2017-03-01T09:21:14.227Z,2656
2017-03-01T09:22:29.008Z,2396
2017-03-01T09:23:43.674Z,1588
2017-03-01T09:24:58.643Z,1036
2017-03-01T09:26:12.795Z,1284
2017-03-01T09:27:27.433Z,2052
2017-03-01T09:28:41.937Z,2820
2017-03-01T09:29:57.627Z,3188
2017-03-01T09:31:12.782Z,1848
2017-03-01T09:32:27.308Z,1888
2017-03-01T09:33:42.118Z,1804
2017-03-01T09:34:57.278Z,1608
2017-03-01T09:36:12.281Z,1828
2017-03-01T09:37:26.951Z,1408
2017-03-01T09:38:42.172Z,1480
2017-03-01T09:39:56.379Z,1764
2017-03-01T09:41:12.578Z,2540
2017-03-01T09:42:27.275Z,2772
2017-03-01T09:43:41.885Z,3624
2017-03-01T09:44:59.356Z,3564
2017-03-01T09:46:14.174Z,2864
2017-03-01T09:47:29.598Z,2428
2017-03-01T09:48:44.551Z,1832
2017-03-01T09:49:59.274Z,2080
2017-03-01T09:51:13.874Z,2864
2017-03-01T09:52:27.957Z,2968
2017-03-01T09:53:44.095Z,2180
2017-03-01T09:54:59.507Z,1848
2017-03-01T09:56:14.526Z,2568
2017-03-01T09:57:29.093Z,2796
2017-03-01T09:58:44.147Z,2032
2017-03-01T09:59:58.693Z,1636
2017-03-01T10:01:13.221Z,1524
2017-03-01T10:02:27.856Z,1752
2017-03-01T10:03:42.595Z,2036
2017-03-01T10:04:56.727Z,1648
2017-03-01T10:06:11.435Z,1296
2017-03-01T10:07:25.453Z,2548
2017-03-01T10:08:39.652Z,4204
2017-03-01T10:09:54.178Z,4624
2017-03-01T10:11:08.879Z,4032
2017-03-01T10:12:23.046Z,3016
2017-03-01T10:13:38.598Z,2892
2017-03-01T10:14:52.692Z,3580
2017-03-01T10:16:07.431Z,3984
2017-03-01T10:17:21.953Z,2804
2017-03-01T10:18:36.134Z,2320
2017-03-01T10:19:50.331Z,2544
2017-03-01T10:21:04.851Z,2240
2017-03-01T10:22:19.166Z,1600
2017-03-01T10:23:33.398Z,1552
2017-03-01T10:24:48.415Z,1480
2017-03-01T10:26:03.501Z,1764
2017-03-01T10:27:18.289Z,1716
2017-03-01T10:28:32.470Z,2336
2017-03-01T10:29:46.751Z,2460
2017-03-01T10:31:01.444Z,2172
2017-03-01T10:32:16.150Z,1728
2017-03-01T10:33:30.839Z,1644
2017-03-01T10:34:45.015Z,1904
2017-03-01T10:35:59.660Z,2400
2017-03-01T10:37:14.439Z,3032
2017-03-01T10:38:29.088Z,2988
2017-03-01T10:39:44.279Z,2224
2017-03-01T10:40:58.933Z,1920
2017-03-01T10:42:13.161Z,1800
2017-03-01T10:43:27.772Z,1988
2017-03-01T10:44:42.820Z,1840
2017-03-01T10:45:56.998Z,2000
2017-03-01T10:47:11.108Z,2348
2017-03-01T10:48:25.443Z,2648
2017-03-01T10:49:40.388Z,3012
2017-03-01T10:50:54.949Z,3304
2017-03-01T10:52:09.408Z,2932
2017-03-01T10:53:24.368Z,2668
2017-03-01T10:54:43.032Z,3284
2017-03-01T10:55:57.685Z,3528
2017-03-01T10:57:12.727Z,2684
2017-03-01T10:58:27.003Z,2904
2017-03-01T10:59:41.576Z,2164
2017-03-01T11:00:55.604Z,2048
2017-03-01T11:02:12.531Z,2232
2017-03-01T11:03:28.359Z,3368
2017-03-01T11:04:42.408Z,4808
2017-03-01T11:05:57.748Z,4408
2017-03-01T11:07:12.395Z,4740
2017-03-01T11:08:27.080Z,3728
2017-03-01T11:09:41.105Z,4168
2017-03-01T11:10:55.266Z,4552
2017-03-01T11:12:10.511Z,4568
2017-03-01T11:13:26.044Z,4884
2017-03-01T11:14:40.632Z,5128
2017-03-01T11:15:56.170Z,5044
2017-03-01T11:17:11.198Z,4944
2017-03-01T11:18:25.921Z,4316
2017-03-01T11:19:40.991Z,3900
2017-03-01T11:20:57.209Z,4020
2017-03-01T11:22:13.355Z,4348
2017-03-01T11:23:29.057Z,5004
2017-03-01T11:24:45.630Z,4712
2017-03-01T11:26:01.202Z,4308
2017-03-01T11:27:16.905Z,3956
2017-03-01T11:28:32.098Z,3428
2017-03-01T11:29:47.333Z,3188
2017-03-01T11:31:01.782Z,3188
2017-03-01T11:32:15.879Z,2808
2017-03-01T11:33:30.916Z,2300
2017-03-01T11:34:44.948Z,1996
2017-03-01T11:36:00.635Z,2132
2017-03-01T11:37:14.991Z,1588
2017-03-01T11:38:29.428Z,1736
2017-03-01T11:39:44.080Z,2356
2017-03-01T11:40:59.176Z,1960
2017-03-01T11:42:13.481Z,2088
2017-03-01T11:43:28.961Z,1900
2017-03-01T11:44:44.584Z,2572
2017-03-01T11:46:00.511Z,3308
2017-03-01T11:47:15.742Z,3724
2017-03-01T11:48:31.096Z,5040
2017-03-01T11:49:47.235Z,4852
2017-03-01T11:51:02.935Z,4540
2017-03-01T11:52:18.712Z,4716
2017-03-01T11:53:34.927Z,4108
2017-03-01T11:54:49.558Z,4328
2017-03-01T11:56:04.495Z,4412
2017-03-01T11:57:18.571Z,4644
2017-03-01T11:58:33.095Z,4532
2017-03-01T11:59:48.450Z,4628
2017-03-01T12:01:03.506Z,4712
2017-03-01T12:02:18.843Z,4696
2017-03-01T12:03:33.541Z,5216
2017-03-01T12:04:48.899Z,5684
2017-03-01T12:06:03.423Z,5204
2017-03-01T12:07:18.463Z,5148
2017-03-01T12:08:32.832Z,5060
2017-03-01T12:09:47.064Z,5044
2017-03-01T12:11:02.613Z,4748
2017-03-01T12:12:16.714Z,4772
2017-03-01T12:13:30.944Z,4496
2017-03-01T12:14:45.015Z,4248
2017-03-01T12:15:59.595Z,3696
2017-03-01T12:17:13.660Z,3508
2017-03-01T12:18:28.214Z,3872
2017-03-01T12:19:45.138Z,3888
2017-03-01T12:20:59.514Z,3440
2017-03-01T12:22:13.678Z,2844
2017-03-01T12:23:28.381Z,2524
2017-03-01T12:24:43.256Z,2796
2017-03-01T12:25:57.384Z,2992
2017-03-01T12:27:12.661Z,3304
2017-03-01T12:28:27.205Z,3296
2017-03-01T12:29:41.446Z,2904
2017-03-01T12:30:56.058Z,3012
2017-03-01T12:32:11.636Z,3420
2017-03-01T12:33:28.718Z,3644
2017-03-01T12:34:43.508Z,3360
2017-03-01T12:35:58.121Z,3036
2017-03-01T12:37:13.331Z,3092
2017-03-01T12:38:28.505Z,2936
2017-03-01T12:39:44.716Z,2504
2017-03-01T12:40:59.856Z,2048
2017-03-01T12:42:16.237Z,1968
2017-03-01T12:43:31.761Z,2020
2017-03-01T12:44:46.672Z,2120
2017-03-01T12:46:01.238Z,2260
2017-03-01T12:47:17.704Z,2260
2017-03-01T12:48:32.573Z,2372
2017-03-01T12:49:48.374Z,2408
2017-03-01T12:51:02.833Z,2404
2017-03-01T12:52:18.466Z,2428
